Time;durP1;ratioP1;P1;durP2;ratioP2;P2;SDS_P1;SDS_P2;PMS_P1;PMS_P2;Temp;Humidity;BMP_temperature;BMP_pressure;BME280_temperature;BME280_humidity;BME280_pressure;Samples;Min_cycle;Max_cycle;Signal;HPM_P1;HPM_P2
2022/01/01 00:02:15;;;;;;;35.05;22.05;;;14.10;85.30;;;;;;4975127;28;20026;-81
2022/01/01 00:04:42;;;;;;;28.15;19.17;;;14.10;85.40;;;;;;4973601;28;20623;-82
2022/01/01 00:07:08;;;;;;;33.30;21.95;;;14.10;85.40;;;;;;4970844;28;20145;-82
2022/01/01 00:09:34;;;;;;;28.05;17.60;;;14.10;85.40;;;;;;4968340;28;20414;-82
2022/01/01 00:12:00;;;;;;;36.60;24.83;;;14.10;85.40;;;;;;4976776;28;20035;-83
2022/01/01 00:14:25;;;;;;;36.17;23.67;;;14.10;85.30;;;;;;4971316;28;20548;-84
2022/01/01 00:16:51;;;;;;;31.75;21.58;;;14.10;85.30;;;;;;4979052;28;20029;-83
2022/01/01 00:19:16;;;;;;;36.72;23.10;;;14.10;85.30;;;;;;4977520;28;20038;-82
2022/01/01 00:21:43;;;;;;;39.17;26.52;;;14.10;85.30;;;;;;4971610;28;20026;-83
2022/01/01 00:24:09;;;;;;;35.97;21.67;;;14.10;85.40;;;;;;4971200;28;20062;-83
2022/01/01 00:26:35;;;;;;;40.65;26.33;;;14.00;85.40;;;;;;4981129;28;20770;-82
2022/01/01 00:29:00;;;;;;;29.30;19.50;;;14.00;85.40;;;;;;4968572;28;20483;-84
2022/01/01 00:31:26;;;;;;;33.90;22.23;;;14.00;85.50;;;;;;4976266;28;20057;-83
2022/01/01 00:33:51;;;;;;;32.95;22.85;;;14.00;85.60;;;;;;4973568;28;20022;-83
2022/01/01 00:36:17;;;;;;;28.55;18.52;;;14.00;85.60;;;;;;4972103;28;20033;-82
2022/01/01 00:38:43;;;;;;;32.33;21.50;;;14.00;85.60;;;;;;4973533;28;20382;-83
2022/01/01 00:41:08;;;;;;;35.30;23.48;;;14.00;85.50;;;;;;4975961;28;20081;-83
2022/01/01 00:43:34;;;;;;;37.55;22.63;;;14.00;85.60;;;;;;4960671;28;20122;-83
2022/01/01 00:46:00;;;;;;;28.95;19.65;;;14.00;85.60;;;;;;4963774;28;20027;-85
2022/01/01 00:48:25;;;;;;;30.73;19.55;;;14.00;85.60;;;;;;4969793;28;20081;-85
2022/01/01 00:50:51;;;;;;;36.08;21.50;;;14.00;85.60;;;;;;4968045;28;20037;-85
2022/01/01 00:53:16;;;;;;;27.33;17.08;;;14.00;85.60;;;;;;4965030;28;20098;-84
2022/01/01 00:55:42;;;;;;;29.35;18.02;;;14.00;86.40;;;;;;4966811;28;20118;-83
2022/01/01 00:58:08;;;;;;;30.23;19.77;;;14.00;85.70;;;;;;4961083;28;20030;-82
2022/01/01 01:00:35;;;;;;;30.08;19.77;;;14.00;85.70;;;;;;4960311;28;20050;-81
2022/01/01 01:03:08;;;;;;;30.05;19.35;;;14.00;85.70;;;;;;4960876;28;20392;-83
2022/01/01 01:05:33;;;;;;;28.02;16.80;;;14.00;85.80;;;;;;4958985;28;20045;-81
2022/01/01 01:07:59;;;;;;;30.60;20.08;;;14.00;85.70;;;;;;4963812;28;20366;-81
2022/01/01 01:10:25;;;;;;;30.17;18.17;;;14.00;85.70;;;;;;4960901;28;20027;-80
2022/01/01 01:12:52;;;;;;;35.72;20.88;;;14.00;85.60;;;;;;4969007;28;20035;-81
2022/01/01 01:15:18;;;;;;;28.85;18.83;;;14.00;85.60;;;;;;4964784;28;20019;-81
2022/01/01 01:17:46;;;;;;;26.25;16.85;;;14.00;85.60;;;;;;4962689;28;20027;-81
2022/01/01 01:20:12;;;;;;;32.45;19.88;;;14.10;85.70;;;;;;4964411;28;20067;-81
2022/01/01 01:22:38;;;;;;;33.55;21.88;;;14.10;85.70;;;;;;4967108;28;20041;-81
2022/01/01 01:25:04;;;;;;;35.20;21.70;;;14.10;85.60;;;;;;4965494;28;20057;-82
2022/01/01 01:27:30;;;;;;;40.05;25.63;;;14.00;85.60;;;;;;4964682;28;20035;-82
2022/01/01 01:29:58;;;;;;;41.30;26.27;;;14.00;85.60;;;;;;4966868;28;20023;-83
2022/01/01 01:32:24;;;;;;;39.95;26.73;;;14.00;85.60;;;;;;4962033;28;20031;-83
2022/01/01 01:34:49;;;;;;;31.52;22.08;;;13.90;85.70;;;;;;4967048;28;20042;-83
2022/01/01 01:37:15;;;;;;;32.90;20.00;;;13.90;85.70;;;;;;4965029;28;20136;-83
2022/01/01 01:39:40;;;;;;;36.65;23.25;;;13.90;85.70;;;;;;4967477;28;20035;-83
2022/01/01 01:42:06;;;;;;;38.65;24.35;;;13.90;85.60;;;;;;4966883;28;20023;-83
2022/01/01 01:44:36;;;;;;;40.72;26.02;;;13.90;85.60;;;;;;4963703;28;20031;-82
2022/01/01 01:47:12;;;;;;;39.03;25.95;;;13.80;85.80;;;;;;4964856;28;20030;-82
2022/01/01 01:49:38;;;;;;;43.50;27.83;;;13.90;85.70;;;;;;4966142;28;20029;-83
2022/01/01 01:52:04;;;;;;;35.05;22.65;;;13.80;85.80;;;;;;4965110;28;20389;-83
2022/01/01 01:54:29;;;;;;;50.45;32.20;;;13.80;85.80;;;;;;4965304;28;20381;-82
2022/01/01 01:56:55;;;;;;;45.95;29.08;;;13.80;85.80;;;;;;4965821;28;20538;-83
2022/01/01 01:59:22;;;;;;;35.42;23.23;;;13.80;85.70;;;;;;4961515;28;20083;-83
2022/01/01 02:01:48;;;;;;;30.83;21.20;;;13.90;85.80;;;;;;4964013;28;20378;-83
2022/01/01 02:04:13;;;;;;;29.23;18.92;;;13.80;85.70;;;;;;4966063;28;20030;-83
2022/01/01 02:06:40;;;;;;;41.60;26.33;;;13.90;85.80;;;;;;4963891;28;20031;-84
2022/01/01 02:09:06;;;;;;;37.67;23.45;;;13.80;85.70;;;;;;4964667;28;20222;-84
2022/01/01 02:11:31;;;;;;;38.88;24.00;;;13.80;85.80;;;;;;4964660;28;20042;-84
2022/01/01 02:18:52;;;;;;;32.95;20.77;;;13.70;85.70;;;;;;4980541;28;20426;-81
2022/01/01 02:21:22;;;;;;;37.13;21.95;;;13.70;85.80;;;;;;4978424;28;20027;-82
2022/01/01 02:23:56;;;;;;;34.60;19.13;;;13.70;85.80;;;;;;4977635;28;20555;-83
2022/01/01 02:26:26;;;;;;;35.42;21.02;;;13.70;85.80;;;;;;4971034;28;20421;-84
2022/01/01 02:28:52;;;;;;;29.90;17.30;;;13.70;85.90;;;;;;4964417;28;20018;-84
2022/01/01 02:31:17;;;;;;;27.73;16.77;;;13.70;86.00;;;;;;4967131;28;20057;-83
2022/01/01 02:33:44;;;;;;;30.80;18.27;;;13.70;86.00;;;;;;4968216;28;20069;-83
2022/01/01 02:36:09;;;;;;;24.63;16.23;;;13.70;86.00;;;;;;4965635;28;20280;-85
2022/01/01 02:38:36;;;;;;;31.90;18.80;;;13.70;86.00;;;;;;4975959;28;20043;-85
2022/01/01 02:41:03;;;;;;;29.30;17.15;;;13.70;86.00;;;;;;4959776;28;20022;-84
2022/01/01 02:43:28;;;;;;;32.08;17.73;;;13.70;86.00;;;;;;4967643;28;20117;-84
2022/01/01 02:45:54;;;;;;;30.42;16.52;;;13.70;85.90;;;;;;4970044;28;20536;-84
2022/01/01 02:48:20;;;;;;;35.08;19.13;;;13.80;85.90;;;;;;4963760;28;20038;-84
2022/01/01 02:50:46;;;;;;;25.55;15.23;;;13.80;85.80;;;;;;4970891;28;20088;-84
2022/01/01 02:53:16;;;;;;;24.85;15.05;;;13.80;85.80;;;;;;4972454;28;20030;-84
2022/01/01 02:55:45;;;;;;;24.00;14.73;;;13.80;85.80;;;;;;4978253;28;20388;-85
2022/01/01 02:58:12;;;;;;;37.33;20.50;;;13.80;85.80;;;;;;4971476;28;20039;-85
2022/01/01 03:00:41;;;;;;;36.65;21.83;;;13.80;85.70;;;;;;4967605;28;20050;-85
2022/01/01 03:03:06;;;;;;;31.45;18.27;;;13.80;85.80;;;;;;4969203;28;20026;-85
2022/01/01 03:05:32;;;;;;;26.38;15.10;;;13.80;85.80;;;;;;4967703;28;20173;-87
2022/01/01 03:07:58;;;;;;;29.73;16.05;;;13.80;85.80;;;;;;4960508;28;20053;-82
2022/01/01 03:10:24;;;;;;;30.25;16.65;;;13.80;85.70;;;;;;4969899;28;20049;-84
2022/01/01 03:12:49;;;;;;;21.58;12.73;;;13.90;85.80;;;;;;4971518;28;20532;-81
2022/01/01 03:15:15;;;;;;;24.40;14.57;;;13.90;85.90;;;;;;4971020;28;20047;-81
2022/01/01 03:17:41;;;;;;;29.20;16.05;;;13.90;85.80;;;;;;4971650;28;20033;-82
2022/01/01 03:20:07;;;;;;;23.83;12.95;;;14.10;85.70;;;;;;4980900;28;20370;-81
2022/01/01 03:22:32;;;;;;;21.75;12.98;;;14.10;85.70;;;;;;4970817;28;20039;-81
2022/01/01 03:24:58;;;;;;;22.60;12.73;;;14.20;85.50;;;;;;4971505;28;20023;-81
2022/01/01 03:27:23;;;;;;;24.20;12.75;;;14.30;85.40;;;;;;4976973;28;20485;-81
2022/01/01 03:29:49;;;;;;;22.00;12.27;;;14.30;85.20;;;;;;4970066;28;20117;-81
2022/01/01 03:32:15;;;;;;;26.65;13.85;;;14.30;85.20;;;;;;4972494;28;20326;-81
2022/01/01 03:34:41;;;;;;;23.38;14.20;;;14.30;85.10;;;;;;4974246;28;20099;-81
2022/01/01 03:37:07;;;;;;;23.45;14.27;;;14.40;85.20;;;;;;4978641;28;20414;-81
2022/01/01 03:39:32;;;;;;;20.52;12.40;;;14.30;85.00;;;;;;4985149;28;20477;-81
2022/01/01 03:41:58;;;;;;;19.92;12.65;;;14.40;85.10;;;;;;4978118;28;20029;-81
2022/01/01 03:44:24;;;;;;;22.27;13.23;;;14.40;85.00;;;;;;4976399;28;20052;-83
2022/01/01 03:46:49;;;;;;;26.85;14.77;;;14.40;84.90;;;;;;4981129;28;20085;-81
2022/01/01 03:49:15;;;;;;;22.08;13.80;;;14.40;84.80;;;;;;4973964;28;20029;-81
2022/01/01 03:51:41;;;;;;;21.45;13.05;;;14.40;84.90;;;;;;4969916;28;20058;-81
2022/01/01 03:54:07;;;;;;;22.65;14.05;;;14.50;84.90;;;;;;4972014;28;20063;-82
2022/01/01 03:56:32;;;;;;;23.50;14.40;;;14.40;84.90;;;;;;4973908;28;20058;-83
2022/01/01 03:58:58;;;;;;;21.27;13.55;;;14.50;85.00;;;;;;4973340;28;20519;-83
2022/01/01 04:01:23;;;;;;;21.92;13.18;;;14.50;85.00;;;;;;4971241;28;20038;-83
2022/01/01 04:03:49;;;;;;;17.42;11.15;;;14.50;84.90;;;;;;4971758;28;20398;-84
2022/01/01 04:06:15;;;;;;;24.25;14.30;;;14.60;84.90;;;;;;4973428;28;20069;-83
2022/01/01 04:08:40;;;;;;;23.15;14.38;;;14.50;84.80;;;;;;4967403;28;20035;-81
2022/01/01 04:11:06;;;;;;;22.33;14.07;;;14.50;84.70;;;;;;4972252;28;20125;-81
2022/01/01 04:13:32;;;;;;;23.17;14.85;;;14.40;84.80;;;;;;4969789;28;20388;-81
2022/01/01 04:15:57;;;;;;;23.55;13.60;;;14.40;84.80;;;;;;4975751;28;20078;-81
2022/01/01 04:18:30;;;;;;;23.95;14.18;;;14.40;84.90;;;;;;4968804;28;20043;-82
2022/01/01 04:20:55;;;;;;;18.92;13.18;;;14.40;84.80;;;;;;4970904;28;20109;-81
2022/01/01 04:23:23;;;;;;;20.20;12.40;;;14.40;84.90;;;;;;4973259;28;20546;-82
2022/01/01 04:25:48;;;;;;;24.25;13.27;;;14.50;85.00;;;;;;4973834;28;20030;-82
2022/01/01 04:28:14;;;;;;;23.42;13.68;;;14.50;84.80;;;;;;4969429;28;20039;-82
2022/01/01 04:30:39;;;;;;;20.40;11.88;;;14.50;84.70;;;;;;4971590;28;20023;-82
2022/01/01 04:33:05;;;;;;;25.23;13.82;;;14.50;84.70;;;;;;4974066;28;20054;-82
2022/01/01 04:35:31;;;;;;;18.52;11.48;;;14.50;84.70;;;;;;4973593;28;20396;-82
2022/01/01 04:37:56;;;;;;;23.52;13.73;;;14.50;84.80;;;;;;4964295;28;20019;-82
2022/01/01 04:40:22;;;;;;;19.05;11.50;;;14.50;84.80;;;;;;4967017;28;20123;-82
2022/01/01 04:42:48;;;;;;;16.92;10.00;;;14.50;84.80;;;;;;4971816;28;20030;-82
2022/01/01 04:45:13;;;;;;;18.88;10.60;;;14.50;84.80;;;;;;4969014;28;20038;-82
2022/01/01 04:47:39;;;;;;;18.65;10.32;;;14.60;84.90;;;;;;4971413;28;20046;-82
2022/01/01 04:50:05;;;;;;;21.63;11.98;;;14.60;84.80;;;;;;4972950;28;20023;-82
2022/01/01 04:52:32;;;;;;;21.63;12.85;;;14.60;84.70;;;;;;4976918;28;20050;-82
2022/01/01 04:54:57;;;;;;;16.60;10.13;;;14.50;84.60;;;;;;4969925;28;20114;-82
2022/01/01 04:57:29;;;;;;;15.23;9.82;;;14.60;84.80;;;;;;4969137;28;20135;-82
2022/01/01 04:59:54;;;;;;;15.38;9.55;;;14.60;84.80;;;;;;4970384;28;20105;-81
2022/01/01 05:02:20;;;;;;;14.68;9.05;;;14.60;84.80;;;;;;4973009;28;20203;-82
2022/01/01 05:04:45;;;;;;;12.80;8.30;;;14.60;84.80;;;;;;4978798;28;20030;-82
2022/01/01 05:07:11;;;;;;;13.80;7.95;;;14.60;84.80;;;;;;4976598;28;20043;-82
2022/01/01 05:09:37;;;;;;;14.77;7.80;;;14.70;84.70;;;;;;4966030;28;20031;-82
2022/01/01 05:12:03;;;;;;;13.35;7.38;;;14.70;84.80;;;;;;4969743;28;20030;-82
2022/01/01 05:14:30;;;;;;;16.83;8.82;;;14.70;84.80;;;;;;4958244;28;20031;-82
2022/01/01 05:16:56;;;;;;;14.88;8.20;;;14.70;84.60;;;;;;4978106;28;20035;-82
2022/01/01 05:19:22;;;;;;;14.93;8.07;;;14.70;84.60;;;;;;4969399;28;20470;-82
2022/01/01 05:21:48;;;;;;;17.27;7.85;;;14.70;84.60;;;;;;4980018;28;20042;-83
2022/01/01 05:24:18;;;;;;;13.88;7.10;;;14.70;84.70;;;;;;4972417;28;20035;-84
2022/01/01 05:26:44;;;;;;;12.50;7.60;;;14.70;84.60;;;;;;4968747;28;20041;-83
2022/01/01 05:29:09;;;;;;;11.93;6.50;;;14.60;84.70;;;;;;4966618;28;20039;-84
2022/01/01 05:31:35;;;;;;;11.63;6.30;;;14.60;84.90;;;;;;4980010;28;20034;-81
2022/01/01 05:34:00;;;;;;;10.25;5.90;;;14.70;84.90;;;;;;4978860;28;20436;-86
2022/01/01 05:36:26;;;;;;;9.30;4.65;;;14.70;84.80;;;;;;4977095;28;20027;-86
2022/01/01 05:38:51;;;;;;;8.77;4.38;;;14.70;84.80;;;;;;4976891;28;20032;-84
2022/01/01 05:41:17;;;;;;;9.70;6.00;;;14.80;84.80;;;;;;4972046;28;20228;-84
2022/01/01 05:43:42;;;;;;;13.23;6.82;;;14.70;84.70;;;;;;4972115;28;20026;-83
2022/01/01 05:46:08;;;;;;;10.85;5.43;;;14.70;84.60;;;;;;4980341;28;20436;-83
2022/01/01 05:48:34;;;;;;;10.05;5.38;;;14.70;84.70;;;;;;4972364;28;20085;-81
2022/01/01 05:50:59;;;;;;;11.35;6.07;;;14.70;84.70;;;;;;4971165;28;20022;-82
2022/01/01 05:53:25;;;;;;;12.20;6.53;;;14.70;84.60;;;;;;4975987;28;20026;-81
2022/01/01 05:55:51;;;;;;;12.88;6.43;;;14.70;84.60;;;;;;4974165;28;20023;-80
2022/01/01 05:58:17;;;;;;;12.52;6.88;;;14.70;84.60;;;;;;4970343;28;20388;-81
2022/01/01 06:00:42;;;;;;;8.80;4.80;;;14.70;84.60;;;;;;4973461;28;20026;-80
2022/01/01 06:03:08;;;;;;;9.23;5.32;;;14.80;84.70;;;;;;4965247;28;20069;-81
2022/01/01 06:05:34;;;;;;;9.07;4.50;;;14.70;84.50;;;;;;4963521;28;20477;-81
2022/01/01 06:08:00;;;;;;;13.45;6.60;;;14.70;84.60;;;;;;4966335;28;20038;-81
2022/01/01 06:10:26;;;;;;;9.57;5.70;;;14.70;84.50;;;;;;4966919;28;20362;-81
2022/01/01 06:12:53;;;;;;;11.35;5.45;;;14.70;84.60;;;;;;4974479;28;20496;-83
2022/01/01 06:15:19;;;;;;;9.05;5.13;;;14.70;84.60;;;;;;4976298;28;20488;-82
2022/01/01 06:17:44;;;;;;;10.18;4.63;;;14.60;84.60;;;;;;4968390;28;20031;-83
2022/01/01 06:20:11;;;;;;;6.68;3.85;;;14.60;84.70;;;;;;4968923;28;20427;-83
2022/01/01 06:22:37;;;;;;;7.53;4.53;;;14.70;84.70;;;;;;4971335;28;20035;-82
2022/01/01 06:25:03;;;;;;;11.70;6.63;;;14.70;84.70;;;;;;4967073;28;20029;-82
2022/01/01 06:27:28;;;;;;;9.30;5.45;;;14.60;84.40;;;;;;4970719;28;20043;-82
2022/01/01 06:29:54;;;;;;;8.88;4.00;;;14.60;84.60;;;;;;4970943;28;20524;-82
2022/01/01 06:32:19;;;;;;;8.95;4.78;;;14.60;84.60;;;;;;4977714;28;20035;-83
2022/01/01 06:34:45;;;;;;;8.60;5.03;;;14.60;84.50;;;;;;4968280;28;20067;-82
2022/01/01 06:37:10;;;;;;;9.95;5.30;;;14.60;84.50;;;;;;4970080;28;20193;-82
2022/01/01 06:39:36;;;;;;;12.20;6.63;;;14.60;84.50;;;;;;4972420;28;20025;-82
2022/01/01 06:42:02;;;;;;;11.88;6.40;;;14.60;84.40;;;;;;4970336;28;20033;-81
2022/01/01 06:44:27;;;;;;;12.40;6.55;;;14.60;84.50;;;;;;4976439;28;20382;-82
2022/01/01 06:46:53;;;;;;;16.45;9.32;;;14.60;84.40;;;;;;4970376;28;20035;-81
2022/01/01 06:49:19;;;;;;;13.70;6.57;;;14.60;84.30;;;;;;4971246;28;20042;-86
2022/01/01 06:51:45;;;;;;;12.68;7.68;;;14.50;84.30;;;;;;4957588;28;20098;-86
2022/01/01 06:54:10;;;;;;;15.68;9.02;;;14.50;84.30;;;;;;4968404;28;20397;-83
2022/01/01 06:56:36;;;;;;;12.77;8.48;;;14.40;84.30;;;;;;4972029;28;20058;-83
2022/01/01 06:59:02;;;;;;;13.45;8.13;;;14.30;84.40;;;;;;4980821;28;20030;-81
2022/01/01 07:01:27;;;;;;;13.13;8.10;;;14.30;84.50;;;;;;4972871;28;20392;-82
2022/01/01 07:03:53;;;;;;;13.50;7.55;;;14.30;84.60;;;;;;4974600;28;20145;-81
2022/01/01 07:06:18;;;;;;;13.70;8.32;;;14.30;84.60;;;;;;4966479;28;20042;-81
2022/01/01 07:08:44;;;;;;;16.15;9.77;;;14.40;84.60;;;;;;4968200;28;20014;-82
2022/01/01 07:11:09;;;;;;;14.57;9.30;;;14.30;84.30;;;;;;4968962;28;20070;-82
2022/01/01 07:13:35;;;;;;;15.80;8.38;;;14.30;84.40;;;;;;4966851;28;20027;-83
2022/01/01 07:16:00;;;;;;;12.68;7.15;;;14.30;84.40;;;;;;4967457;28;20478;-82
2022/01/01 07:18:26;;;;;;;14.75;9.30;;;14.30;84.50;;;;;;4974856;28;20027;-82
2022/01/01 07:20:52;;;;;;;17.13;10.07;;;14.30;84.40;;;;;;4979675;28;20038;-82
2022/01/01 07:23:17;;;;;;;14.35;7.93;;;14.10;84.10;;;;;;4974581;28;20031;-80
2022/01/01 07:25:43;;;;;;;13.57;7.63;;;14.10;84.30;;;;;;4960653;28;20046;-80
2022/01/01 07:28:10;;;;;;;16.70;8.63;;;14.10;84.40;;;;;;4965604;28;20462;-81
2022/01/01 07:30:35;;;;;;;13.38;7.65;;;14.10;84.30;;;;;;4968509;28;20074;-83
2022/01/01 07:33:01;;;;;;;13.45;7.18;;;14.00;84.30;;;;;;4978047;28;20039;-83
2022/01/01 07:35:27;;;;;;;11.13;6.22;;;14.00;84.50;;;;;;4970838;28;20031;-83
2022/01/01 07:37:52;;;;;;;10.18;5.60;;;14.00;84.50;;;;;;4977417;28;20029;-81
2022/01/01 07:40:18;;;;;;;11.75;6.13;;;13.90;84.40;;;;;;4973495;28;20022;-81
2022/01/01 07:42:45;;;;;;;12.93;6.05;;;13.90;84.40;;;;;;4978399;28;20023;-82
2022/01/01 07:45:12;;;;;;;13.70;5.10;;;13.90;84.40;;;;;;4972198;28;20096;-82
2022/01/01 07:47:38;;;;;;;8.60;4.40;;;13.90;84.50;;;;;;4971087;28;20042;-81
2022/01/01 07:50:05;;;;;;;6.82;3.65;;;14.00;84.60;;;;;;4978213;28;20066;-81
2022/01/01 07:52:31;;;;;;;12.45;5.28;;;14.00;84.50;;;;;;4977902;28;20042;-82
2022/01/01 07:54:56;;;;;;;10.30;4.40;;;13.90;84.30;;;;;;4970241;28;20018;-81
2022/01/01 07:57:21;;;;;;;11.82;5.07;;;14.00;84.40;;;;;;4970997;28;20027;-82
2022/01/01 07:59:47;;;;;;;7.82;4.28;;;14.00;84.30;;;;;;4982554;28;20030;-81
2022/01/01 08:02:12;;;;;;;8.13;4.90;;;14.00;84.20;;;;;;4974603;28;20118;-81
2022/01/01 08:04:38;;;;;;;13.32;6.30;;;13.90;84.00;;;;;;4967348;28;20027;-84
2022/01/01 08:07:04;;;;;;;10.10;4.22;;;13.90;84.00;;;;;;4978305;28;20035;-84
2022/01/01 08:09:29;;;;;;;9.05;4.65;;;13.90;84.10;;;;;;4984766;28;20094;-84
2022/01/01 08:11:55;;;;;;;10.80;4.63;;;13.90;84.20;;;;;;4976153;28;20034;-83
2022/01/01 08:14:21;;;;;;;10.27;3.90;;;13.90;84.10;;;;;;4973426;28;20436;-83
2022/01/01 08:16:57;;;;;;;6.55;3.30;;;13.90;84.20;;;;;;4980138;28;20046;-83
2022/01/01 08:19:22;;;;;;;8.48;4.07;;;13.90;84.20;;;;;;4981949;28;20034;-82
2022/01/01 08:21:48;;;;;;;6.25;3.30;;;13.90;84.10;;;;;;4979609;28;20023;-82
2022/01/01 08:24:13;;;;;;;8.85;4.22;;;14.00;84.20;;;;;;4974651;28;20440;-83
2022/01/01 08:26:39;;;;;;;7.53;3.88;;;14.00;84.00;;;;;;4978114;28;20038;-83
2022/01/01 08:29:04;;;;;;;8.32;4.40;;;13.90;84.00;;;;;;4974778;28;20393;-82
2022/01/01 08:31:30;;;;;;;9.32;4.22;;;13.90;83.90;;;;;;4973899;28;20090;-82
2022/01/01 08:33:55;;;;;;;10.70;4.80;;;13.90;83.80;;;;;;4975746;28;20023;-83
2022/01/01 08:36:21;;;;;;;7.28;3.58;;;13.80;83.80;;;;;;4978636;28;20158;-82
2022/01/01 08:38:46;;;;;;;10.40;4.60;;;13.80;84.00;;;;;;4967287;28;20038;-83
2022/01/01 08:41:12;;;;;;;7.38;3.33;;;13.90;84.00;;;;;;4962866;28;20042;-83
2022/01/01 08:43:38;;;;;;;8.48;3.92;;;13.90;84.00;;;;;;4978404;28;20362;-83
2022/01/01 08:46:04;;;;;;;7.57;4.00;;;13.90;83.80;;;;;;4970954;28;20046;-82
2022/01/01 08:48:29;;;;;;;11.63;4.63;;;13.90;83.70;;;;;;4972646;28;20022;-89
2022/01/01 08:50:55;;;;;;;8.23;4.00;;;13.90;83.50;;;;;;4971456;28;20084;-82
2022/01/01 08:53:20;;;;;;;9.18;4.03;;;13.90;83.60;;;;;;4965690;28;20026;-82
2022/01/01 08:55:46;;;;;;;5.95;3.28;;;13.90;83.50;;;;;;4977426;28;20030;-82
2022/01/01 08:58:11;;;;;;;8.75;4.00;;;13.90;83.50;;;;;;4973478;28;20030;-82
2022/01/01 09:00:37;;;;;;;7.78;3.72;;;13.90;83.50;;;;;;4970767;28;20023;-83
2022/01/01 09:03:02;;;;;;;7.78;3.83;;;13.90;83.50;;;;;;4963918;28;20034;-82
2022/01/01 09:05:28;;;;;;;6.60;3.08;;;13.90;83.50;;;;;;4970341;28;20026;-84
2022/01/01 09:07:54;;;;;;;6.55;3.35;;;13.90;83.50;;;;;;4964015;28;20090;-83
2022/01/01 09:10:20;;;;;;;6.60;3.20;;;13.90;83.50;;;;;;4970140;28;20034;-86
2022/01/01 09:12:46;;;;;;;6.57;3.30;;;13.90;83.50;;;;;;4968004;28;20243;-85
2022/01/01 09:15:12;;;;;;;7.63;3.47;;;13.90;83.50;;;;;;4967512;28;20106;-85
2022/01/01 09:17:38;;;;;;;7.85;3.78;;;13.90;83.40;;;;;;4967091;28;20450;-84
2022/01/01 09:20:04;;;;;;;8.82;3.65;;;13.90;83.40;;;;;;4968173;28;20041;-81
2022/01/01 09:22:29;;;;;;;9.48;3.80;;;14.00;83.40;;;;;;4965711;28;20019;-81
2022/01/01 09:24:55;;;;;;;8.32;3.47;;;14.00;83.30;;;;;;4965272;28;20031;-81
2022/01/01 09:27:20;;;;;;;10.23;4.85;;;14.00;83.30;;;;;;4962512;28;20046;-81
2022/01/01 09:29:46;;;;;;;8.02;4.03;;;14.00;83.10;;;;;;4967999;28;21821;-80
2022/01/01 09:32:12;;;;;;;6.95;3.50;;;13.90;83.10;;;;;;4967554;28;20397;-81
2022/01/01 09:34:37;;;;;;;10.10;3.45;;;14.00;83.20;;;;;;4967995;28;20081;-80
2022/01/01 09:37:04;;;;;;;7.72;3.22;;;14.00;83.20;;;;;;4963510;28;20033;-81
2022/01/01 09:39:29;;;;;;;10.60;4.32;;;14.00;83.10;;;;;;4964122;28;20035;-81
2022/01/01 09:41:56;;;;;;;7.93;3.45;;;14.00;83.00;;;;;;4963350;28;20081;-82
2022/01/01 09:44:22;;;;;;;6.82;3.90;;;14.00;83.00;;;;;;4963705;28;20450;-82
2022/01/01 09:46:50;;;;;;;9.25;3.80;;;14.00;83.00;;;;;;4960828;28;20054;-81
2022/01/01 09:49:17;;;;;;;7.75;3.40;;;14.00;82.90;;;;;;4962464;28;20492;-82
2022/01/01 09:51:44;;;;;;;7.97;4.22;;;14.00;83.00;;;;;;4964725;28;20101;-82
2022/01/01 09:54:10;;;;;;;10.20;4.63;;;14.00;82.80;;;;;;4959708;28;20089;-81
2022/01/01 09:56:36;;;;;;;9.65;3.92;;;14.00;82.80;;;;;;4959857;28;20026;-81
2022/01/01 09:59:02;;;;;;;7.60;3.00;;;14.00;82.80;;;;;;4960816;28;20501;-81
2022/01/01 10:01:28;;;;;;;7.47;3.60;;;14.00;82.90;;;;;;4959794;28;20027;-82
2022/01/01 10:03:53;;;;;;;10.75;4.30;;;14.00;82.80;;;;;;4962514;28;20034;-82
2022/01/01 10:06:21;;;;;;;7.22;3.78;;;14.00;82.80;;;;;;4961423;28;20113;-82
2022/01/01 10:08:54;;;;;;;8.00;4.40;;;14.00;82.80;;;;;;4959764;28;20069;-82
2022/01/01 10:11:20;;;;;;;8.50;4.07;;;14.00;82.80;;;;;;4958305;28;20375;-82
2022/01/01 10:13:46;;;;;;;6.85;3.88;;;14.00;82.80;;;;;;4961508;28;20038;-82
2022/01/01 10:16:13;;;;;;;11.07;4.90;;;14.00;82.80;;;;;;4960150;28;20397;-82
2022/01/01 10:18:41;;;;;;;10.30;5.03;;;14.00;82.80;;;;;;4958349;28;20019;-82
2022/01/01 10:21:09;;;;;;;9.02;4.18;;;14.00;82.70;;;;;;4950359;28;20089;-82
2022/01/01 10:23:36;;;;;;;8.07;4.00;;;14.00;82.70;;;;;;4958516;28;20045;-82
2022/01/01 10:29:11;;;;;;;8.75;3.90;;;14.10;82.80;;;;;;4959522;28;20077;-82
2022/01/01 10:31:38;;;;;;;7.50;3.50;;;14.10;82.70;;;;;;4956390;28;20039;-83
2022/01/01 10:34:11;;;;;;;5.45;3.30;;;14.10;82.70;;;;;;4964683;28;20019;-82
2022/01/01 10:36:36;;;;;;;8.30;3.88;;;14.10;82.70;;;;;;4961721;28;20445;-83
2022/01/01 10:39:13;;;;;;;6.97;3.53;;;14.10;82.70;;;;;;4958976;28;20035;-83
2022/01/01 10:41:52;;;;;;;11.38;4.82;;;14.20;82.80;;;;;;4953907;28;20275;-85
2022/01/01 10:44:37;;;;;;;11.68;5.43;;;14.20;82.70;;;;;;4960496;28;20042;-82
2022/01/01 10:47:15;;;;;;;6.90;4.18;;;14.20;82.50;;;;;;4963810;28;20035;-81
2022/01/01 10:52:17;;;;;;;8.77;5.15;;;14.20;82.60;;;;;;4968976;28;20031;-81
2022/01/01 10:55:06;;;;;;;11.27;5.55;;;14.20;82.50;;;;;;4961174;28;20046;-80
2022/01/01 10:57:41;;;;;;;9.40;4.72;;;14.20;82.50;;;;;;4956973;28;20117;-81
2022/01/01 11:00:20;;;;;;;9.55;4.72;;;14.20;82.50;;;;;;4958712;28;20024;-81
2022/01/01 11:03:04;;;;;;;7.90;4.78;;;14.20;82.60;;;;;;4966326;28;20034;-81
2022/01/01 11:05:31;;;;;;;8.75;5.15;;;14.20;82.50;;;;;;4962248;28;20015;-81
2022/01/01 11:07:57;;;;;;;7.70;4.53;;;14.20;82.50;;;;;;4969887;28;20426;-81
2022/01/01 11:10:23;;;;;;;9.35;4.97;;;14.30;82.60;;;;;;4964190;28;20097;-80
2022/01/01 11:12:50;;;;;;;9.68;4.78;;;14.30;82.50;;;;;;4961011;28;20030;-80
2022/01/01 11:15:16;;;;;;;11.23;5.53;;;14.30;82.40;;;;;;4969474;28;20030;-83
2022/01/01 11:17:46;;;;;;;7.70;5.00;;;14.30;82.30;;;;;;4962445;28;20045;-81
2022/01/01 11:20:12;;;;;;;8.63;4.95;;;14.30;82.90;;;;;;4965880;28;20137;-81
2022/01/01 11:22:38;;;;;;;7.70;4.03;;;14.30;82.20;;;;;;4971896;28;20035;-82
2022/01/01 11:25:04;;;;;;;7.28;4.63;;;14.40;82.30;;;;;;4963739;28;20038;-82
2022/01/01 11:27:31;;;;;;;7.65;4.25;;;14.40;82.30;;;;;;4968437;28;20043;-82
2022/01/01 11:29:59;;;;;;;12.93;5.97;;;14.40;82.30;;;;;;4967565;28;20023;-83
2022/01/01 11:33:05;;;;;;;11.23;6.43;;;14.50;82.30;;;;;;4974938;28;20085;-81
2022/01/01 11:35:53;;;;;;;7.88;4.63;;;14.50;82.20;;;;;;4975148;28;20346;-81
2022/01/01 11:38:19;;;;;;;8.02;4.43;;;14.50;82.10;;;;;;4971262;28;20023;-82
2022/01/01 11:40:59;;;;;;;5.82;3.33;;;14.50;82.80;;;;;;4972585;28;20054;-82
2022/01/01 11:43:39;;;;;;;7.15;4.10;;;14.50;82.20;;;;;;4970678;28;20602;-82
2022/01/01 11:46:15;;;;;;;11.52;5.95;;;14.50;82.20;;;;;;4976447;28;21005;-79
2022/01/01 11:48:58;;;;;;;9.70;5.18;;;14.50;82.20;;;;;;4971359;28;20507;-80
2022/01/01 11:51:32;;;;;;;9.60;5.22;;;14.60;82.10;;;;;;4976623;28;20015;-81
2022/01/01 11:54:24;;;;;;;10.38;5.50;;;14.60;82.10;;;;;;4969410;28;20027;-78
2022/01/01 11:56:50;;;;;;;15.43;7.47;;;14.50;82.10;;;;;;4977349;28;20034;-83
2022/01/01 11:59:18;;;;;;;13.18;6.32;;;14.60;82.10;;;;;;4975840;28;20037;-83
2022/01/01 12:01:44;;;;;;;7.57;4.93;;;14.60;82.10;;;;;;4973938;28;20077;-83
2022/01/01 12:04:23;;;;;;;10.00;5.13;;;14.60;82.00;;;;;;4971703;28;20026;-81
2022/01/01 12:06:57;;;;;;;13.65;6.85;;;14.70;82.00;;;;;;4973751;28;20497;-83
2022/01/01 12:09:23;;;;;;;9.05;5.32;;;14.70;82.00;;;;;;4967564;28;20092;-83
2022/01/01 12:11:57;;;;;;;7.57;4.72;;;14.70;81.90;;;;;;4972058;28;20429;-83
2022/01/01 12:14:28;;;;;;;6.72;4.07;;;14.70;81.90;;;;;;4971228;28;20038;-84
2022/01/01 12:16:55;;;;;;;9.73;4.95;;;14.70;81.90;;;;;;4976396;28;20035;-81
2022/01/01 12:19:25;;;;;;;8.00;4.03;;;14.70;81.70;;;;;;4966201;28;20477;-82
2022/01/01 12:22:07;;;;;;;11.07;5.97;;;14.70;81.70;;;;;;4974069;28;20039;-80
2022/01/01 12:24:35;;;;;;;13.00;6.43;;;14.70;81.60;;;;;;4972187;28;20093;-81
2022/01/01 12:27:09;;;;;;;9.35;5.85;;;14.70;81.70;;;;;;4978072;28;20493;-82
2022/01/01 12:29:34;;;;;;;16.50;8.70;;;14.70;81.70;;;;;;4967336;28;20042;-83
2022/01/01 12:32:00;;;;;;;13.43;6.80;;;14.80;81.70;;;;;;4972157;28;20019;-84
2022/01/01 12:34:27;;;;;;;7.65;4.65;;;14.80;81.70;;;;;;4970604;28;20481;-82
2022/01/01 12:36:53;;;;;;;10.35;5.03;;;14.80;81.70;;;;;;4975687;28;20046;-83
2022/01/01 12:39:20;;;;;;;8.65;4.70;;;14.90;81.70;;;;;;4968259;28;20037;-82
2022/01/01 12:41:46;;;;;;;12.18;6.93;;;14.90;81.50;;;;;;4968763;28;20027;-82
2022/01/01 12:44:20;;;;;;;8.52;4.85;;;14.90;81.30;;;;;;4971485;28;20093;-82
2022/01/01 12:46:48;;;;;;;8.00;4.40;;;14.90;81.30;;;;;;4972696;28;20038;-83